createdAt,value
2018-04-22T00:00:07.447Z,12.50
2018-04-22T00:02:34.336Z,12.50
2018-04-22T00:05:02.008Z,12.50
2018-04-22T00:07:28.925Z,12.50
2018-04-22T00:09:55.836Z,12.50
2018-04-22T00:12:24.006Z,12.40
2018-04-22T00:14:51.625Z,12.40
2018-04-22T00:17:18.532Z,12.40
2018-04-22T00:19:48.219Z,12.30
2018-04-22T00:22:16.390Z,12.30
2018-04-22T00:24:43.293Z,12.30
2018-04-22T00:27:10.193Z,12.30
2018-04-22T00:29:37.810Z,12.40
2018-04-22T00:32:05.178Z,12.30
2018-04-22T00:34:32.520Z,12.40
2018-04-22T00:36:59.429Z,12.40
2018-04-22T00:39:26.328Z,12.30
2018-04-22T00:41:53.739Z,12.30
2018-04-22T00:44:21.766Z,12.20
2018-04-22T00:46:51.979Z,12.10
2018-04-22T00:49:18.905Z,12.10
2018-04-22T00:51:45.793Z,12.00
2018-04-22T00:54:20.895Z,11.90
2018-04-22T00:56:47.808Z,11.90
2018-04-22T00:59:15.079Z,11.90
2018-04-22T01:01:41.956Z,11.90
2018-04-22T01:04:09.581Z,11.80
2018-04-22T01:06:36.455Z,11.80
2018-04-22T01:09:05.749Z,11.80
2018-04-22T01:11:32.649Z,11.80
2018-04-22T01:14:00.872Z,11.70
2018-04-22T01:16:28.936Z,11.70
2018-04-22T01:18:55.835Z,11.70
2018-04-22T01:21:23.957Z,11.60
2018-04-22T01:23:53.988Z,11.60
2018-04-22T01:26:21.621Z,11.50
2018-04-22T01:28:48.499Z,11.50
2018-04-22T01:31:16.543Z,11.50
2018-04-22T01:33:43.876Z,11.50
2018-04-22T01:36:11.153Z,11.50
2018-04-22T01:38:38.095Z,11.50
2018-04-22T01:41:04.976Z,11.40
2018-04-22T01:43:32.872Z,11.40
2018-04-22T01:46:00.955Z,11.40
2018-04-22T01:48:28.665Z,11.30
2018-04-22T01:50:56.297Z,11.30
2018-04-22T01:53:25.122Z,11.30
2018-04-22T01:55:52.776Z,11.20
2018-04-22T01:58:20.424Z,11.20
2018-04-22T02:00:47.755Z,11.10
2018-04-22T02:03:14.649Z,11.10
2018-04-22T02:05:41.524Z,11.10
2018-04-22T02:08:08.416Z,11.10
2018-04-22T02:10:36.562Z,11.10
2018-04-22T02:13:03.679Z,11.00
2018-04-22T02:15:31.313Z,10.90
2018-04-22T02:17:58.239Z,10.90
2018-04-22T02:20:25.129Z,10.90
2018-04-22T02:22:52.081Z,10.90
2018-04-22T02:25:19.025Z,10.90
2018-04-22T02:27:45.908Z,10.90
2018-04-22T02:30:13.932Z,10.80
2018-04-22T02:32:40.803Z,10.80
2018-04-22T02:35:08.257Z,10.80
2018-04-22T02:37:35.625Z,10.80
2018-04-22T02:40:02.510Z,10.70
2018-04-22T02:42:29.394Z,10.70
2018-04-22T02:44:56.381Z,10.70
2018-04-22T02:47:24.420Z,10.70
2018-04-22T02:49:51.800Z,10.70
2018-04-22T02:52:18.689Z,10.70
2018-04-22T02:54:45.567Z,10.60
2018-04-22T02:57:12.512Z,10.60
2018-04-22T02:59:43.051Z,10.60
2018-04-22T03:02:09.948Z,10.60
2018-04-22T03:04:36.821Z,10.50
2018-04-22T03:07:04.196Z,10.50
2018-04-22T03:09:31.083Z,10.50
2018-04-22T03:12:00.148Z,10.60
2018-04-22T03:14:28.400Z,10.60
2018-04-22T03:16:55.288Z,10.60
2018-04-22T03:19:22.183Z,10.50
2018-04-22T03:21:49.069Z,10.50
2018-04-22T03:24:15.976Z,10.40
2018-04-22T03:26:43.824Z,10.40
2018-04-22T03:29:11.297Z,10.40
2018-04-22T03:31:38.193Z,10.30
2018-04-22T03:34:05.070Z,10.30
2018-04-22T03:36:33.248Z,10.30
2018-04-22T03:39:01.083Z,10.20
2018-04-22T03:41:27.985Z,10.10
2018-04-22T03:43:55.433Z,10.10
2018-04-22T03:46:22.364Z,10.10
2018-04-22T03:48:49.299Z,10.10
2018-04-22T03:51:17.280Z,10.10
2018-04-22T03:53:44.147Z,10.00
2018-04-22T03:56:11.021Z,10.00
2018-04-22T03:58:38.948Z,10.00
2018-04-22T04:01:09.239Z,10.00
2018-04-22T04:03:37.044Z,9.90
2018-04-22T04:06:03.923Z,9.90
2018-04-22T04:08:30.799Z,10.00
2018-04-22T04:10:57.680Z,10.00
2018-04-22T04:13:26.863Z,9.90
2018-04-22T04:15:53.771Z,9.90
2018-04-22T04:21:47.396Z,10.00
2018-04-22T04:24:36.108Z,9.90
2018-04-22T04:30:09.008Z,9.70
2018-04-22T04:32:36.614Z,9.70
2018-04-22T04:35:03.960Z,9.70
2018-04-22T04:37:31.822Z,9.70
2018-04-22T04:39:58.681Z,9.60
2018-04-22T04:42:25.544Z,9.70
2018-04-22T04:44:52.403Z,9.70
2018-04-22T04:47:20.108Z,9.60
2018-04-22T04:49:47.840Z,9.60
2018-04-22T04:52:14.739Z,9.60
2018-04-22T04:54:45.576Z,9.60
2018-04-22T04:57:13.188Z,9.60
2018-04-22T04:59:40.135Z,9.60
2018-04-22T05:02:06.997Z,9.60
2018-04-22T05:04:33.855Z,9.60
2018-04-22T05:07:02.036Z,9.60
2018-04-22T05:09:28.896Z,9.50
2018-04-22T05:11:55.788Z,9.50
2018-04-22T05:14:24.055Z,9.50
2018-04-22T05:16:50.883Z,9.60
2018-04-22T05:19:18.099Z,9.60
2018-04-22T05:21:44.993Z,9.60
2018-04-22T05:24:13.705Z,9.60
2018-04-22T05:26:40.579Z,9.60
2018-04-22T05:29:08.203Z,9.70
2018-04-22T05:31:35.084Z,9.70
2018-04-22T05:34:01.951Z,9.70
2018-04-22T05:36:28.961Z,9.80
2018-04-22T05:38:55.819Z,9.90
2018-04-22T05:41:22.676Z,10.10
2018-04-22T05:43:51.084Z,10.20
2018-04-22T05:46:17.936Z,10.30
2018-04-22T05:48:44.868Z,10.40
2018-04-22T05:51:11.725Z,10.50
2018-04-22T05:53:38.611Z,10.70
2018-04-22T05:56:06.228Z,10.80
2018-04-22T05:58:33.832Z,10.90
2018-04-22T06:01:01.542Z,11.00
2018-04-22T06:03:28.488Z,11.00
2018-04-22T06:05:55.356Z,11.20
2018-04-22T06:08:22.240Z,11.30
2018-04-22T06:10:49.100Z,11.50
2018-04-22T06:13:15.995Z,11.70
2018-04-22T06:15:42.852Z,11.80
2018-04-22T06:18:09.719Z,11.90
2018-04-22T06:20:39.132Z,12.00
2018-04-22T06:23:06.091Z,12.20
2018-04-22T06:25:36.112Z,12.50
2018-04-22T06:28:05.336Z,12.80
2018-04-22T06:30:32.181Z,13.20
2018-04-22T06:32:59.060Z,13.70
2018-04-22T06:35:26.689Z,14.10
2018-04-22T06:37:53.895Z,14.60
2018-04-22T06:40:20.817Z,15.00
2018-04-22T06:42:47.768Z,15.40
2018-04-22T06:45:14.955Z,15.80
2018-04-22T06:47:41.808Z,16.20
2018-04-22T06:50:08.780Z,16.60
2018-04-22T06:52:35.644Z,17.00
2018-04-22T06:55:02.648Z,17.30
2018-04-22T06:57:29.532Z,17.60
2018-04-22T06:59:56.395Z,18.10
2018-04-22T07:02:23.271Z,18.50
2018-04-22T07:04:50.208Z,18.80
2018-04-22T07:07:17.072Z,19.10
2018-04-22T07:09:43.960Z,19.50
2018-04-22T07:12:12.472Z,19.80
2018-04-22T07:14:40.364Z,20.20
2018-04-22T07:17:07.259Z,20.60
2018-04-22T07:19:34.154Z,20.80
2018-04-22T07:22:02.058Z,21.10
2018-04-22T07:24:28.947Z,21.40
2018-04-22T07:26:56.496Z,21.60
2018-04-22T07:29:23.401Z,21.80
2018-04-22T07:31:50.259Z,22.00
2018-04-22T07:34:17.264Z,22.10
2018-04-22T07:36:44.183Z,22.20
2018-04-22T07:39:12.514Z,22.20
2018-04-22T07:41:39.427Z,22.30
2018-04-22T07:44:06.311Z,22.20
2018-04-22T07:46:34.333Z,22.10
2018-04-22T07:49:01.248Z,22.10
2018-04-22T07:51:28.739Z,22.00
2018-04-22T07:53:55.643Z,22.00
2018-04-22T07:56:24.416Z,21.90
2018-04-22T07:58:51.341Z,21.80
2018-04-22T08:01:18.955Z,21.70
2018-04-22T08:03:46.532Z,21.70
2018-04-22T08:06:13.483Z,21.70
2018-04-22T08:08:40.360Z,21.80
2018-04-22T08:11:09.005Z,21.70
2018-04-22T08:13:35.872Z,21.80
2018-04-22T08:16:03.408Z,21.80
2018-04-22T08:18:30.699Z,21.80
2018-04-22T08:20:57.636Z,21.90
2018-04-22T08:23:24.528Z,21.90
2018-04-22T08:25:51.503Z,21.90
2018-04-22T08:28:18.860Z,21.90
2018-04-22T08:30:46.488Z,21.90
2018-04-22T08:33:13.474Z,21.90
2018-04-22T08:35:41.529Z,22.00
2018-04-22T08:38:08.457Z,22.00
2018-04-22T08:40:36.236Z,22.10
2018-04-22T08:43:03.137Z,22.10
2018-04-22T08:45:30.013Z,22.20
2018-04-22T08:47:56.924Z,22.40
2018-04-22T08:50:23.808Z,22.50
2018-04-22T08:52:51.919Z,22.60
2018-04-22T08:55:18.877Z,22.60
2018-04-22T08:57:46.788Z,22.80
2018-04-22T09:00:13.758Z,23.00
2018-04-22T09:02:41.504Z,23.40
2018-04-22T09:05:08.867Z,23.40
2018-04-22T09:07:36.473Z,23.70
2018-04-22T09:10:03.369Z,23.70
2018-04-22T09:12:31.617Z,23.80
2018-04-22T09:14:58.508Z,23.90
2018-04-22T09:17:25.876Z,24.00
2018-04-22T09:19:54.593Z,24.20
2018-04-22T09:22:21.461Z,24.30
2018-04-22T09:24:48.920Z,24.50
2018-04-22T09:27:15.839Z,24.70
2018-04-22T09:29:43.104Z,24.80
2018-04-22T09:32:09.982Z,25.00
2018-04-22T09:34:37.583Z,25.30
2018-04-22T09:37:05.747Z,25.30
2018-04-22T09:39:33.771Z,25.40
2018-04-22T09:42:01.571Z,25.40
2018-04-22T09:44:28.448Z,25.60
2018-04-22T09:46:56.081Z,25.80
2018-04-22T09:49:22.984Z,26.00
2018-04-22T09:51:49.945Z,26.00
2018-04-22T09:54:18.600Z,26.10
2018-04-22T09:56:45.479Z,26.00
2018-04-22T09:59:13.172Z,26.10
2018-04-22T10:01:40.120Z,26.10
2018-04-22T10:04:10.003Z,26.20
2018-04-22T10:06:37.692Z,26.60
2018-04-22T10:09:05.523Z,26.60
2018-04-22T10:11:33.189Z,26.70
2018-04-22T10:14:00.068Z,26.70
2018-04-22T10:16:26.980Z,26.80
2018-04-22T10:18:53.927Z,27.00
2018-04-22T10:21:21.576Z,27.20
2018-04-22T10:23:49.830Z,27.10
2018-04-22T10:26:19.393Z,27.10
2018-04-22T10:28:46.265Z,27.30
2018-04-22T10:31:13.517Z,27.40
2018-04-22T10:33:40.381Z,27.50
2018-04-22T10:36:07.354Z,27.60
2018-04-22T10:38:35.395Z,27.60
2018-04-22T10:41:02.260Z,27.70
2018-04-22T10:43:32.651Z,27.80
2018-04-22T10:45:59.916Z,28.00
2018-04-22T10:48:26.779Z,28.10
2018-04-22T10:50:53.692Z,28.20
2018-04-22T10:53:20.708Z,28.10
2018-04-22T10:55:47.912Z,28.20
2018-04-22T10:58:14.781Z,28.20
2018-04-22T11:00:43.727Z,28.20
2018-04-22T11:03:10.621Z,28.30
2018-04-22T11:05:37.488Z,28.30
2018-04-22T11:08:07.023Z,28.30
2018-04-22T11:10:33.892Z,28.20
2018-04-22T11:13:00.756Z,28.40
2018-04-22T11:15:29.359Z,28.10
2018-04-22T11:17:57.155Z,28.10
2018-04-22T11:20:24.039Z,28.20
2018-04-22T11:22:51.663Z,28.20
2018-04-22T11:25:18.528Z,28.20
2018-04-22T11:27:46.156Z,28.30
2018-04-22T11:30:13.099Z,28.30
2018-04-22T11:32:40.380Z,28.20
2018-04-22T11:35:07.998Z,28.10
2018-04-22T11:37:35.201Z,28.10
2018-04-22T11:40:02.852Z,28.10
2018-04-22T11:42:29.721Z,28.10
2018-04-22T11:44:59.491Z,28.10
2018-04-22T11:47:26.356Z,27.90
2018-04-22T11:49:53.956Z,28.00
2018-04-22T11:52:20.843Z,28.00
2018-04-22T11:54:47.707Z,28.10
2018-04-22T11:57:15.708Z,28.40
2018-04-22T11:59:42.577Z,28.30
2018-04-22T12:02:09.854Z,28.40
2018-04-22T12:04:37.499Z,28.40
2018-04-22T12:07:04.752Z,28.20
2018-04-22T12:09:31.640Z,27.90
2018-04-22T12:11:58.501Z,27.70
2018-04-22T12:14:25.392Z,27.60
2018-04-22T12:16:52.711Z,27.40
2018-04-22T12:19:19.680Z,27.30
2018-04-22T12:21:47.664Z,27.10
2018-04-22T12:24:14.539Z,27.10
2018-04-22T12:26:41.504Z,26.90
2018-04-22T12:29:08.442Z,26.80
2018-04-22T12:31:35.636Z,26.60
2018-04-22T12:34:02.507Z,26.60
2018-04-22T12:36:30.156Z,26.60
2018-04-22T12:38:57.031Z,26.60
2018-04-22T12:41:23.925Z,26.70
2018-04-22T12:43:51.285Z,26.90
2018-04-22T12:46:18.144Z,27.20
2018-04-22T12:48:45.016Z,27.40
2018-04-22T12:51:12.504Z,27.50
2018-04-22T12:53:39.411Z,27.60
2018-04-22T12:56:07.045Z,27.60
2018-04-22T12:58:35.195Z,27.80
2018-04-22T13:01:02.137Z,28.00
2018-04-22T13:03:29.812Z,28.20
2018-04-22T13:05:57.585Z,28.30
2018-04-22T13:08:26.453Z,28.50
2018-04-22T13:10:53.347Z,28.40
2018-04-22T13:13:21.244Z,28.50
2018-04-22T13:15:48.131Z,28.50
2018-04-22T13:18:15.436Z,28.40
2018-04-22T13:20:43.259Z,28.40
2018-04-22T13:23:10.153Z,28.40
2018-04-22T13:25:37.016Z,28.30
2018-04-22T13:28:04.384Z,28.20
2018-04-22T13:30:31.809Z,28.30
2018-04-22T13:32:59.003Z,28.20
2018-04-22T13:35:27.652Z,28.20
2018-04-22T13:37:54.518Z,28.10
2018-04-22T13:40:21.380Z,28.00
2018-04-22T13:42:48.403Z,27.80
2018-04-22T13:45:15.284Z,27.60
2018-04-22T13:47:42.920Z,27.30
2018-04-22T13:50:11.439Z,27.30
2018-04-22T13:52:38.643Z,27.20
2018-04-22T13:55:07.342Z,27.20
2018-04-22T13:57:34.504Z,27.20
2018-04-22T14:00:01.383Z,27.30
2018-04-22T14:02:28.245Z,27.30
2018-04-22T14:04:55.674Z,27.30
2018-04-22T14:07:22.591Z,27.30
2018-04-22T14:09:49.467Z,27.20
2018-04-22T14:12:16.608Z,27.20
2018-04-22T14:14:43.476Z,27.10
2018-04-22T14:17:10.364Z,27.10
2018-04-22T14:19:38.435Z,26.70
2018-04-22T14:22:06.054Z,26.40
2018-04-22T14:24:32.924Z,26.40
2018-04-22T14:27:00.275Z,26.20
2018-04-22T14:29:27.893Z,26.10
2018-04-22T14:31:55.452Z,26.00
2018-04-22T14:34:22.326Z,26.00
2018-04-22T14:36:49.394Z,25.80
2018-04-22T14:39:16.280Z,25.70
2018-04-22T14:41:43.288Z,25.60
2018-04-22T14:44:24.423Z,25.60
2018-04-22T14:46:52.533Z,25.50
2018-04-22T14:49:20.482Z,25.30
2018-04-22T14:51:47.355Z,25.30
2018-04-22T14:54:16.064Z,25.30
2018-04-22T14:56:43.981Z,25.30
2018-04-22T14:59:10.864Z,25.30
2018-04-22T15:01:37.832Z,25.40
2018-04-22T15:04:04.720Z,25.40
2018-04-22T15:06:32.704Z,25.40
2018-04-22T15:09:00.036Z,25.30
2018-04-22T15:11:26.923Z,25.30
2018-04-22T15:13:53.801Z,25.20
2018-04-22T15:16:21.739Z,25.20
2018-04-22T15:18:49.648Z,25.20
2018-04-22T15:21:17.504Z,25.10
2018-04-22T15:23:44.382Z,25.00
2018-04-22T15:26:11.253Z,24.90
2018-04-22T15:28:38.124Z,24.80
2018-04-22T15:31:06.079Z,24.80
2018-04-22T15:33:33.859Z,24.70
2018-04-22T15:36:01.632Z,24.70
2018-04-22T15:38:29.647Z,24.70
2018-04-22T15:40:56.523Z,24.70
2018-04-22T15:43:24.244Z,24.70
2018-04-22T15:45:51.107Z,24.70
2018-04-22T15:48:19.544Z,24.70
2018-04-22T15:50:46.420Z,24.70
2018-04-22T15:53:13.851Z,24.80
2018-04-22T15:55:41.216Z,24.80
2018-04-22T15:58:08.166Z,24.80
2018-04-22T16:00:36.181Z,24.80
2018-04-22T16:03:03.096Z,24.80
2018-04-22T16:05:29.980Z,24.80
2018-04-22T16:07:58.256Z,24.70
2018-04-22T16:10:25.168Z,24.70
2018-04-22T16:12:52.427Z,24.70
2018-04-22T16:15:21.284Z,24.60
2018-04-22T16:17:48.195Z,24.60
2018-04-22T16:20:16.078Z,24.60
2018-04-22T16:22:44.467Z,24.50
2018-04-22T16:25:11.361Z,24.40
2018-04-22T16:27:38.227Z,24.30
2018-04-22T16:30:05.440Z,24.30
2018-04-22T16:32:34.281Z,24.20
2018-04-22T16:35:01.140Z,24.10
2018-04-22T16:37:29.936Z,24.00
2018-04-22T16:39:56.809Z,24.00
2018-04-22T16:42:23.683Z,23.80
2018-04-22T16:44:55.278Z,23.80
2018-04-22T16:47:22.159Z,23.70
2018-04-22T16:49:49.055Z,23.60
2018-04-22T16:52:15.944Z,23.50
2018-04-22T16:54:42.814Z,23.50
2018-04-22T16:57:10.369Z,23.40
2018-04-22T16:59:37.263Z,23.30
2018-04-22T17:02:05.689Z,23.10
2018-04-22T17:04:32.609Z,23.10
2018-04-22T17:07:00.338Z,23.00
2018-04-22T17:09:27.956Z,23.00
2018-04-22T17:11:54.883Z,22.90
2018-04-22T17:14:24.212Z,22.80
2018-04-22T17:16:51.103Z,22.80
2018-04-22T17:19:19.261Z,22.70
2018-04-22T17:21:51.021Z,22.70
2018-04-22T17:24:17.885Z,22.60
2018-04-22T17:26:44.781Z,22.50
2018-04-22T17:29:11.720Z,22.50
2018-04-22T17:31:38.617Z,22.40
2018-04-22T17:34:05.932Z,22.40
2018-04-22T17:36:32.791Z,22.30
2018-04-22T17:38:59.743Z,22.30
2018-04-22T17:41:26.609Z,22.20
2018-04-22T17:43:54.060Z,22.10
2018-04-22T17:46:21.464Z,22.10
2018-04-22T17:48:48.533Z,22.00
2018-04-22T17:51:15.844Z,21.90
2018-04-22T17:53:42.788Z,21.80
2018-04-22T17:56:09.704Z,21.80
2018-04-22T17:58:39.253Z,21.60
2018-04-22T18:01:06.123Z,21.60
2018-04-22T18:03:33.652Z,21.60
2018-04-22T18:06:00.528Z,21.50
2018-04-22T18:08:27.416Z,21.40
2018-04-22T18:10:55.640Z,21.40
2018-04-22T18:13:22.544Z,21.30
2018-04-22T18:15:49.808Z,21.20
2018-04-22T18:18:16.752Z,21.10
2018-04-22T18:20:44.455Z,20.90
2018-04-22T18:23:12.296Z,20.90
2018-04-22T18:25:39.157Z,20.90
2018-04-22T18:28:07.636Z,20.80
2018-04-22T18:30:34.495Z,20.70
2018-04-22T18:33:01.355Z,20.60
2018-04-22T18:35:32.879Z,20.40
2018-04-22T18:37:59.727Z,20.40
2018-04-22T18:40:26.654Z,20.30
2018-04-22T18:42:54.843Z,20.20
2018-04-22T18:45:21.714Z,20.10
2018-04-22T18:47:49.728Z,19.70
2018-04-22T18:50:17.827Z,19.70
2018-04-22T18:52:45.240Z,19.50
2018-04-22T18:55:12.120Z,19.40
2018-04-22T18:57:39.004Z,19.30
2018-04-22T19:00:07.532Z,19.20
2018-04-22T19:02:34.395Z,19.10
2018-04-22T19:05:01.661Z,19.10
2018-04-22T19:07:28.524Z,19.10
2018-04-22T19:09:55.392Z,19.10
2018-04-22T19:12:25.653Z,19.00
2018-04-22T19:14:52.526Z,18.90
2018-04-22T19:17:21.979Z,18.70
2018-04-22T19:19:49.504Z,18.70
2018-04-22T19:22:16.372Z,18.60
2018-04-22T19:24:43.256Z,18.50
2018-04-22T19:27:10.200Z,18.40
2018-04-22T19:29:37.196Z,18.40
2018-04-22T19:32:04.073Z,18.40
2018-04-22T19:34:32.368Z,18.40
2018-04-22T19:36:59.267Z,18.30
2018-04-22T19:39:26.133Z,18.30
2018-04-22T19:41:53.028Z,18.30
2018-04-22T19:44:20.018Z,18.30
2018-04-22T19:46:46.950Z,18.20
2018-04-22T19:49:14.199Z,18.00
2018-04-22T19:51:41.076Z,17.80
2018-04-22T19:54:08.595Z,17.80
2018-04-22T19:56:35.468Z,17.70
2018-04-22T19:59:02.632Z,17.60
2018-04-22T20:01:29.512Z,17.50
2018-04-22T20:03:56.404Z,17.40
2018-04-22T20:06:24.352Z,17.30
2018-04-22T20:08:51.228Z,17.20
2018-04-22T20:11:18.273Z,17.10
2018-04-22T20:13:45.221Z,17.10
2018-04-22T20:16:12.092Z,17.00
2018-04-22T20:18:41.360Z,16.90
2018-04-22T20:21:08.248Z,16.90
2018-04-22T20:23:35.552Z,16.80
2018-04-22T20:26:02.461Z,16.70
2018-04-22T20:28:29.363Z,16.60
2018-04-22T20:30:56.280Z,16.50
2018-04-22T20:33:23.537Z,16.50
2018-04-22T20:35:51.204Z,16.50
2018-04-22T20:38:18.076Z,16.40
2018-04-22T20:40:46.164Z,16.40
2018-04-22T20:43:13.083Z,16.40
2018-04-22T20:45:40.706Z,16.10
2018-04-22T20:48:08.049Z,16.10
2018-04-22T20:50:34.915Z,16.10
2018-04-22T20:53:01.808Z,15.90
2018-04-22T20:55:32.390Z,15.90
2018-04-22T20:57:59.256Z,15.80
2018-04-22T21:00:26.218Z,15.70
2018-04-22T21:02:53.101Z,15.60
2018-04-22T21:05:19.978Z,15.60
2018-04-22T21:07:48.004Z,15.50
2018-04-22T21:10:15.512Z,15.40
2018-04-22T21:12:43.445Z,15.40
2018-04-22T21:15:11.101Z,15.30
2018-04-22T21:17:38.481Z,15.30
2018-04-22T21:20:07.156Z,15.20
2018-04-22T21:22:34.052Z,15.10
2018-04-22T21:25:01.388Z,15.10
2018-04-22T21:27:29.044Z,15.10
2018-04-22T21:29:56.677Z,15.10
2018-04-22T21:32:23.947Z,15.10
2018-04-22T21:34:50.840Z,15.10
2018-04-22T21:37:18.331Z,15.00
2018-04-22T21:39:45.291Z,14.90
2018-04-22T21:42:12.567Z,14.80
2018-04-22T21:44:39.492Z,14.70
2018-04-22T21:47:06.465Z,14.70
2018-04-22T21:49:33.775Z,14.60
2018-04-22T21:52:00.657Z,14.60
2018-04-22T21:54:28.211Z,14.50
2018-04-22T21:56:55.583Z,14.50
2018-04-22T21:59:22.492Z,14.50
2018-04-22T22:01:49.717Z,14.50
2018-04-22T22:04:16.600Z,14.40
2018-04-22T22:06:43.620Z,14.40
2018-04-22T22:09:10.529Z,14.30
2018-04-22T22:11:37.808Z,14.20
2018-04-22T22:14:06.309Z,14.30
2018-04-22T22:16:34.280Z,14.30
2018-04-22T22:19:01.262Z,14.40
2018-04-22T22:21:28.185Z,14.40
2018-04-22T22:23:55.527Z,14.30
2018-04-22T22:26:23.001Z,14.20
2018-04-22T22:28:50.636Z,14.10
2018-04-22T22:31:18.177Z,14.10
2018-04-22T22:33:45.069Z,14.00
2018-04-22T22:36:11.949Z,13.90
2018-04-22T22:38:38.876Z,13.90
2018-04-22T22:41:05.756Z,13.80
2018-04-22T22:43:32.637Z,13.80
2018-04-22T22:46:00.561Z,13.80
2018-04-22T22:48:27.448Z,13.80
2018-04-22T22:50:54.361Z,13.70
2018-04-22T22:53:21.321Z,13.70
2018-04-22T22:55:48.205Z,13.70
2018-04-22T22:58:15.132Z,13.70
2018-04-22T23:00:42.036Z,13.60
2018-04-22T23:03:10.850Z,13.60
2018-04-22T23:05:38.460Z,13.70
2018-04-22T23:08:05.353Z,13.60
2018-04-22T23:10:33.470Z,13.60
2018-04-22T23:13:00.356Z,13.60
2018-04-22T23:15:28.487Z,13.60
2018-04-22T23:17:55.564Z,13.60
2018-04-22T23:20:22.468Z,13.60
2018-04-22T23:22:49.371Z,13.60
2018-04-22T23:25:16.244Z,13.50
2018-04-22T23:27:43.157Z,13.40
2018-04-22T23:30:10.428Z,13.40
2018-04-22T23:32:37.296Z,13.40
2018-04-22T23:35:04.873Z,13.40
2018-04-22T23:37:32.468Z,13.40
2018-04-22T23:40:00.428Z,13.30
2018-04-22T23:42:27.312Z,13.40
2018-04-22T23:44:54.184Z,13.40
2018-04-22T23:47:21.080Z,13.30
2018-04-22T23:49:47.965Z,13.30
2018-04-22T23:52:15.364Z,13.30
2018-04-22T23:54:42.236Z,13.30
2018-04-22T23:57:09.143Z,13.30
2018-04-22T23:59:37.265Z,13.20
